Time;durP1;ratioP1;P1;durP2;ratioP2;P2;SDS_P1;SDS_P2;PMS_P1;PMS_P2;Temp;Humidity;BMP_temperature;BMP_pressure;BME280_temperature;BME280_humidity;BME280_pressure;Samples;Min_cycle;Max_cycle;Signal;HPM_P1;HPM_P2
2021/03/16 00:00:33;;;;;;;131.45;59.23;;;;;;;-1.53;68.70;96333.41;1830491;77;25770;-84
2021/03/16 00:03:02;;;;;;;127.05;56.58;;;;;;;-1.56;68.80;96328.42;1809497;77;26372;-83
2021/03/16 00:05:30;;;;;;;126.02;52.25;;;;;;;-1.61;68.67;96336.05;1809555;77;25789;-84
2021/03/16 00:07:57;;;;;;;118.67;53.65;;;;;;;-1.59;68.73;96336.72;1791632;77;25317;-84
2021/03/16 00:10:25;;;;;;;117.33;53.30;;;;;;;-1.63;68.66;96336.70;1799912;77;27552;-84
2021/03/16 00:12:52;;;;;;;131.80;56.42;;;;;;;-1.66;68.69;96337.02;1832681;77;25628;-83
2021/03/16 00:15:20;;;;;;;116.75;52.58;;;;;;;-1.69;68.81;96341.33;1809354;77;25806;-84
2021/03/16 00:17:47;;;;;;;127.58;56.50;;;;;;;-1.68;68.88;96342.46;1836244;77;25773;-84
2021/03/16 00:20:15;;;;;;;132.67;56.73;;;;;;;-1.66;68.88;96342.30;1802826;77;25882;-83
2021/03/16 00:22:42;;;;;;;136.03;57.67;;;;;;;-1.67;68.84;96341.97;1802897;77;26737;-84
2021/03/16 00:25:12;;;;;;;124.12;53.52;;;;;;;-1.66;68.89;96342.30;1800726;77;25805;-84
2021/03/16 00:27:39;;;;;;;124.62;53.95;;;;;;;-1.68;68.88;96340.31;1809385;77;26008;-85
2021/03/16 00:30:08;;;;;;;117.20;53.48;;;;;;;-1.70;68.87;96348.92;1809394;77;26506;-84
2021/03/16 00:32:35;;;;;;;112.95;51.10;;;;;;;-1.72;68.86;96352.22;1815414;77;25755;-85
2021/03/16 00:35:04;;;;;;;112.05;51.88;;;;;;;-1.75;68.72;96349.40;1829412;77;27556;-84
2021/03/16 00:37:31;;;;;;;120.70;54.63;;;;;;;-1.76;68.84;96346.91;1792727;77;25734;-84
2021/03/16 00:39:58;;;;;;;106.92;51.28;;;;;;;-1.75;68.90;96352.53;1796278;77;26311;-84
2021/03/16 00:42:26;;;;;;;109.60;52.05;;;;;;;-1.73;68.94;96353.21;1821840;77;26572;-84
2021/03/16 00:44:53;;;;;;;107.72;48.95;;;;;;;-1.72;68.79;96352.22;1802129;77;25659;-84
2021/03/16 00:47:20;;;;;;;109.52;50.03;;;;;;;-1.77;68.72;96351.86;1787183;77;27528;-84
2021/03/16 00:49:48;;;;;;;109.90;50.43;;;;;;;-1.83;68.68;96350.70;1802686;77;25715;-84
2021/03/16 00:52:15;;;;;;;110.45;51.13;;;;;;;-1.88;68.73;96347.20;1787300;77;26292;-85
2021/03/16 00:54:42;;;;;;;111.05;48.45;;;;;;;-1.85;68.83;96350.03;1812241;77;26506;-84
2021/03/16 00:57:10;;;;;;;104.38;49.98;;;;;;;-1.83;68.83;96348.06;1842779;77;25731;-85
2021/03/16 00:59:37;;;;;;;115.62;51.88;;;;;;;-1.87;68.77;96345.39;1820181;77;27544;-85
2021/03/16 01:02:04;;;;;;;125.15;52.10;;;;;;;-1.90;68.76;96349.17;1822960;77;25334;-85
2021/03/16 01:04:32;;;;;;;164.18;65.83;;;;;;;-1.90;68.81;96346.53;1803418;77;25849;-84
2021/03/16 01:06:59;;;;;;;328.77;88.92;;;;;;;-1.91;68.86;96340.08;1819439;77;25733;-84
2021/03/16 01:09:26;;;;;;;245.63;73.42;;;;;;;-1.94;68.83;96341.25;1818510;77;25868;-84
2021/03/16 01:11:54;;;;;;;178.53;60.50;;;;;;;-1.94;68.85;96333.31;1839086;77;27587;-84
2021/03/16 01:14:21;;;;;;;129.95;50.45;;;;;;;-1.95;68.87;96334.80;1809413;77;26131;-85
2021/03/16 01:16:48;;;;;;;103.87;48.78;;;;;;;-1.97;68.84;96346.85;1812694;77;25762;-84
2021/03/16 01:19:16;;;;;;;108.57;48.23;;;;;;;-1.95;68.94;96344.88;1794875;77;25742;-84
2021/03/16 01:21:43;;;;;;;102.72;47.35;;;;;;;-1.93;68.92;96344.20;1809552;77;25723;-84
2021/03/16 01:24:10;;;;;;;102.72;48.28;;;;;;;-1.95;68.90;96336.95;1832920;77;27502;-84
2021/03/16 01:26:38;;;;;;;96.10;45.38;;;;;;;-1.99;68.75;96343.53;1809438;77;26182;-84
2021/03/16 01:29:05;;;;;;;105.97;46.92;;;;;;;-2.08;68.77;96337.89;1789760;77;26252;-84
2021/03/16 01:31:32;;;;;;;102.62;45.90;;;;;;;-2.14;68.79;96335.03;1798423;77;25710;-84
2021/03/16 01:34:00;;;;;;;100.53;46.98;;;;;;;-2.19;68.84;96336.84;1797371;77;25773;-84
2021/03/16 01:36:27;;;;;;;99.00;46.02;;;;;;;-2.24;68.81;96332.52;1827067;77;27548;-84
2021/03/16 01:38:55;;;;;;;95.50;45.92;;;;;;;-2.28;68.78;96336.45;1790835;77;26327;-84
2021/03/16 01:41:22;;;;;;;96.87;46.08;;;;;;;-2.33;68.76;96334.30;1794924;77;25840;-84
2021/03/16 01:43:49;;;;;;;100.58;46.63;;;;;;;-2.35;68.77;96338.08;1809577;77;26483;-84
2021/03/16 01:46:19;;;;;;;94.87;46.18;;;;;;;-2.36;68.81;96335.93;1803815;77;25787;-84
2021/03/16 01:48:47;;;;;;;94.95;44.75;;;;;;;-2.37;68.87;96338.72;1800459;77;27485;-85
2021/03/16 01:51:14;;;;;;;96.28;43.35;;;;;;;-2.39;68.93;96340.20;1773738;79;26373;-85
2021/03/16 01:53:43;;;;;;;91.17;40.73;;;;;;;-2.41;68.97;96336.05;1795084;79;25724;-85
2021/03/16 01:56:13;;;;;;;112.03;48.70;;;;;;;-2.41;69.04;96334.23;1795679;79;25778;-84
2021/03/16 01:58:44;;;;;;;102.22;44.75;;;;;;;-2.42;69.01;96335.74;1795019;79;25927;-84
2021/03/16 02:01:12;;;;;;;117.80;47.70;;;;;;;-2.47;69.03;96338.02;1784144;79;28465;-84
2021/03/16 02:03:39;;;;;;;113.92;46.40;;;;;;;-2.51;69.04;96336.66;1789085;79;25290;-84
2021/03/16 02:06:11;;;;;;;101.22;44.23;;;;;;;-2.55;69.06;96334.35;1782702;79;25758;-84
2021/03/16 02:09:06;;;;;;;95.77;42.23;;;;;;;-2.60;69.06;96332.66;1778602;79;25758;-84
2021/03/16 02:11:50;;;;;;;95.80;42.33;;;;;;;-2.64;69.07;96339.23;1783878;79;25816;-84
2021/03/16 02:14:34;;;;;;;95.15;45.43;;;;;;;-2.69;69.08;96336.73;1788325;79;27552;-83
2021/03/16 02:17:16;;;;;;;94.07;42.67;;;;;;;-2.75;69.11;96344.77;1779974;79;26110;-84
2021/03/16 02:20:17;;;;;;;107.15;44.42;;;;;;;-2.75;69.27;96347.91;1787749;79;26266;-84
2021/03/16 02:22:48;;;;;;;99.10;43.87;;;;;;;-2.78;69.33;96349.56;1795525;79;25749;-84
2021/03/16 02:25:44;;;;;;;95.72;43.17;;;;;;;-2.81;69.32;96344.58;1788743;79;25867;-84
2021/03/16 02:28:25;;;;;;;93.85;41.75;;;;;;;-2.79;69.31;96350.05;1774490;79;27486;-84
2021/03/16 02:30:55;;;;;;;93.23;43.63;;;;;;;-2.74;69.40;96347.75;1764040;79;26113;-84
2021/03/16 02:33:26;;;;;;;89.32;40.70;;;;;;;-2.72;69.38;96354.20;1778717;79;25773;-84
2021/03/16 02:35:56;;;;;;;84.40;40.05;;;;;;;-2.72;69.35;96353.72;1787729;78;34833;-83
2021/03/16 02:38:29;;;;;;;86.32;41.60;;;;;;;-2.71;69.38;96354.05;1773219;79;25861;-84
2021/03/16 02:40:58;;;;;;;86.42;40.48;;;;;;;-2.73;69.41;96356.02;1780036;79;27564;-84
2021/03/16 02:43:27;;;;;;;90.12;41.70;;;;;;;-2.74;69.38;96354.36;1787937;79;25802;-84
2021/03/16 02:45:55;;;;;;;103.55;44.35;;;;;;;-2.74;69.33;96357.48;1763859;79;25806;-84
2021/03/16 02:48:25;;;;;;;90.85;40.75;;;;;;;-2.73;69.38;96352.05;1787524;79;25787;-85
2021/03/16 02:50:53;;;;;;;103.53;45.48;;;;;;;-2.71;69.33;96346.62;1807584;77;25803;-84
2021/03/16 02:53:21;;;;;;;86.40;40.65;;;;;;;-2.74;69.25;96357.48;1809483;77;28560;-84
2021/03/16 02:55:48;;;;;;;84.90;40.50;;;;;;;-2.80;69.28;96359.44;1804942;77;26168;-84
2021/03/16 02:58:17;;;;;;;83.55;40.73;;;;;;;-2.84;69.35;96358.91;1792680;77;25857;-84
2021/03/16 03:00:45;;;;;;;87.05;41.35;;;;;;;-2.81;69.39;96357.78;1832544;77;25808;-84
2021/03/16 03:03:16;;;;;;;84.28;40.23;;;;;;;-2.84;69.40;96358.08;1805606;77;25729;-84
2021/03/16 03:05:45;;;;;;;86.42;39.45;;;;;;;-2.86;69.35;96359.55;1815808;77;28526;-84
2021/03/16 03:08:13;;;;;;;89.67;43.28;;;;;;;-2.91;69.21;96359.20;1824048;77;25648;-85
2021/03/16 03:10:41;;;;;;;86.47;42.65;;;;;;;-2.96;69.23;96362.78;1825386;77;25804;-84
2021/03/16 03:13:09;;;;;;;93.80;42.78;;;;;;;-2.97;69.38;96362.44;1822262;77;25756;-83
2021/03/16 03:15:36;;;;;;;90.87;43.60;;;;;;;-2.99;69.38;96359.13;1787272;77;25819;-83
2021/03/16 03:18:03;;;;;;;89.92;43.95;;;;;;;-2.97;69.44;96357.99;1814818;77;27604;-84
2021/03/16 03:20:36;;;;;;;103.32;44.63;;;;;;;-2.91;69.54;96363.16;1824983;77;25738;-84
2021/03/16 03:23:18;;;;;;;102.67;45.70;;;;;;;-2.90;69.52;96375.39;1800494;77;25689;-83
2021/03/16 03:25:53;;;;;;;104.65;47.05;;;;;;;-2.83;69.57;96377.74;1809420;77;25871;-83
2021/03/16 03:28:27;;;;;;;94.85;43.25;;;;;;;-2.79;69.38;96376.95;1810084;77;25855;-84
2021/03/16 03:30:59;;;;;;;96.90;44.83;;;;;;;-2.85;69.28;96371.78;1810606;77;27495;-84
2021/03/16 03:33:28;;;;;;;105.83;48.50;;;;;;;-2.93;69.23;96367.77;1809000;77;25828;-84
2021/03/16 03:35:56;;;;;;;98.20;46.05;;;;;;;-2.98;69.29;96373.98;1807146;77;25699;-83
2021/03/16 03:38:26;;;;;;;93.85;43.85;;;;;;;-3.01;69.37;96371.15;1824291;77;25890;-83
2021/03/16 03:40:54;;;;;;;89.42;42.35;;;;;;;-3.02;69.36;96375.29;1829931;77;26212;-84
2021/03/16 03:43:24;;;;;;;90.85;42.23;;;;;;;-3.03;69.37;96371.82;1817822;77;27540;-84
2021/03/16 03:45:57;;;;;;;89.62;41.15;;;;;;;-2.99;69.44;96373.64;1816446;77;25835;-84
2021/03/16 03:48:26;;;;;;;96.22;43.68;;;;;;;-2.95;69.39;96376.33;1821447;77;26360;-83
2021/03/16 03:50:58;;;;;;;92.80;43.25;;;;;;;-2.97;69.31;96390.16;1842353;77;25704;-84
2021/03/16 03:53:26;;;;;;;105.83;48.60;;;;;;;-3.01;69.29;96385.67;1823970;77;25681;-84
2021/03/16 03:55:55;;;;;;;121.25;51.80;;;;;;;-3.02;69.30;96393.77;1829351;77;27501;-83
2021/03/16 03:58:24;;;;;;;107.60;49.85;;;;;;;-3.00;69.38;96397.06;1833834;77;26393;-83
2021/03/16 04:00:51;;;;;;;98.17;46.33;;;;;;;-3.01;69.33;96411.24;1828900;77;25885;-84
2021/03/16 04:03:19;;;;;;;106.00;47.40;;;;;;;-3.06;69.33;96406.92;1836004;77;25743;-84
2021/03/16 04:05:50;;;;;;;101.38;47.53;;;;;;;-3.11;69.34;96406.53;1827653;77;26283;-83
2021/03/16 04:08:18;;;;;;;85.07;42.15;;;;;;;-3.15;69.31;96409.99;1837405;77;27662;-84
2021/03/16 04:10:46;;;;;;;88.42;42.25;;;;;;;-3.22;69.35;96401.48;1801554;77;25779;-84
2021/03/16 04:13:13;;;;;;;90.32;43.48;;;;;;;-3.27;69.48;96400.15;1801965;77;25771;-83
2021/03/16 04:15:41;;;;;;;98.25;45.17;;;;;;;-3.27;69.54;96412.03;1830602;77;25774;-83
2021/03/16 04:18:12;;;;;;;88.37;41.23;;;;;;;-3.22;69.65;96410.73;1823565;77;25781;-83
2021/03/16 04:20:40;;;;;;;88.12;41.58;;;;;;;-3.22;69.60;96406.28;1800845;77;27495;-84
2021/03/16 04:23:08;;;;;;;87.30;41.10;;;;;;;-3.23;69.61;96405.11;1789890;77;25679;-84
2021/03/16 04:25:35;;;;;;;77.82;39.10;;;;;;;-3.27;69.62;96406.75;1787822;77;25794;-83
2021/03/16 04:28:03;;;;;;;89.97;41.35;;;;;;;-3.27;69.71;96408.06;1829918;77;26545;-83
2021/03/16 04:30:30;;;;;;;95.70;42.83;;;;;;;-3.26;69.65;96407.58;1831837;77;25734;-83
2021/03/16 04:32:58;;;;;;;91.87;41.33;;;;;;;-3.27;69.55;96409.39;1831970;77;27382;-83
2021/03/16 04:35:25;;;;;;;96.22;45.25;;;;;;;-3.28;69.56;96412.17;1832018;77;25729;-83
2021/03/16 04:37:52;;;;;;;95.05;42.50;;;;;;;-3.24;69.57;96417.95;1800116;77;25651;-83
2021/03/16 04:40:20;;;;;;;93.58;42.78;;;;;;;-3.28;69.50;96417.45;1810840;77;26309;-83
2021/03/16 04:42:48;;;;;;;106.12;47.83;;;;;;;-3.30;69.45;96421.55;1821103;77;26243;-84
2021/03/16 04:45:16;;;;;;;104.58;48.42;;;;;;;-3.27;69.55;96414.66;1836863;77;27553;-83
2021/03/16 04:47:43;;;;;;;118.93;52.75;;;;;;;-3.22;69.54;96413.37;1809505;77;26139;-83
2021/03/16 04:50:11;;;;;;;111.03;51.68;;;;;;;-3.23;69.47;96416.98;1806602;77;25710;-83
2021/03/16 04:52:38;;;;;;;152.05;59.42;;;;;;;-3.27;69.57;96421.27;1812304;78;25788;-83
2021/03/16 04:55:07;;;;;;;149.50;58.83;;;;;;;-3.28;69.52;96426.20;1814420;78;25867;-82
2021/03/16 04:57:35;;;;;;;153.65;59.77;;;;;;;-3.32;69.60;96424.83;1791807;78;27546;-83
2021/03/16 05:00:03;;;;;;;145.45;58.58;;;;;;;-3.34;69.64;96421.50;1804988;78;25679;-83
2021/03/16 05:02:31;;;;;;;140.18;58.65;;;;;;;-3.36;69.66;96422.14;1791075;78;25759;-83
2021/03/16 05:04:58;;;;;;;141.32;58.48;;;;;;;-3.35;69.77;96425.12;1813954;78;26425;-84
2021/03/16 05:07:26;;;;;;;135.03;56.02;;;;;;;-3.30;69.77;96424.69;1813195;77;25714;-82
2021/03/16 05:09:53;;;;;;;134.50;54.77;;;;;;;-3.23;69.80;96425.73;1804932;78;27478;-83
2021/03/16 05:12:20;;;;;;;132.55;55.25;;;;;;;-3.14;69.68;96432.73;1814168;78;25822;-83
2021/03/16 05:14:48;;;;;;;145.77;56.98;;;;;;;-3.13;69.59;96433.08;1782907;78;25759;-83
2021/03/16 05:17:16;;;;;;;134.97;54.13;;;;;;;-3.18;69.42;96439.81;1801694;78;25813;-83
2021/03/16 05:19:43;;;;;;;124.15;52.08;;;;;;;-3.24;69.42;96440.39;1806451;78;26388;-83
2021/03/16 05:22:10;;;;;;;128.02;52.90;;;;;;;-3.26;69.51;96442.69;1811980;78;27413;-83
2021/03/16 05:24:38;;;;;;;127.32;52.17;;;;;;;-3.24;69.55;96443.03;1803665;78;25749;-83
2021/03/16 05:27:06;;;;;;;116.45;51.23;;;;;;;-3.20;69.67;96449.69;1770522;78;25679;-83
2021/03/16 05:29:34;;;;;;;114.95;49.77;;;;;;;-3.17;69.69;96444.11;1797345;78;25713;-83
2021/03/16 05:32:01;;;;;;;122.75;53.85;;;;;;;-3.14;69.79;96438.54;1777050;78;25946;-83
2021/03/16 05:34:28;;;;;;;120.97;51.08;;;;;;;-3.11;69.90;96443.01;1786587;78;27557;-83
2021/03/16 05:36:55;;;;;;;115.67;53.08;;;;;;;-3.08;69.94;96445.84;1792823;78;25850;-82
2021/03/16 05:39:23;;;;;;;173.25;70.85;;;;;;;-3.07;70.05;96446.19;1764295;78;25320;-82
2021/03/16 05:41:51;;;;;;;155.12;66.22;;;;;;;-2.99;70.21;96449.72;1772838;78;25727;-83
2021/03/16 05:44:19;;;;;;;173.87;71.10;;;;;;;-2.87;70.23;96454.77;1792703;78;26182;-83
2021/03/16 05:46:47;;;;;;;199.30;78.12;;;;;;;-2.78;70.33;96452.56;1792869;78;28297;-82
2021/03/16 05:49:17;;;;;;;211.77;90.15;;;;;;;-2.70;70.26;96450.81;1763942;78;25682;-83
2021/03/16 05:51:45;;;;;;;213.75;91.05;;;;;;;-2.63;70.30;96450.53;1802739;77;25792;-83
2021/03/16 05:54:13;;;;;;;184.55;76.50;;;;;;;-2.56;70.30;96452.92;1830977;77;25725;-83
2021/03/16 05:56:41;;;;;;;163.37;74.42;;;;;;;-2.43;70.39;96451.69;1803689;77;25758;-84
2021/03/16 05:59:09;;;;;;;152.12;71.00;;;;;;;-2.32;70.41;96455.39;1817643;77;26675;-83
2021/03/16 06:01:36;;;;;;;138.25;62.80;;;;;;;-2.22;70.34;96456.95;1818054;77;25866;-83
2021/03/16 06:04:03;;;;;;;121.22;55.48;;;;;;;-2.12;70.31;96454.20;1818744;77;25283;-83
2021/03/16 06:06:34;;;;;;;124.33;57.13;;;;;;;-2.07;70.24;96463.00;1836607;77;25750;-83
2021/03/16 06:09:01;;;;;;;128.38;57.88;;;;;;;-2.04;70.29;96459.52;1823142;77;25712;-83
2021/03/16 06:11:28;;;;;;;126.78;56.28;;;;;;;-1.94;70.29;96461.59;1818153;77;28460;-83
2021/03/16 06:13:56;;;;;;;121.72;58.50;;;;;;;-1.88;70.26;96460.12;1817902;77;25806;-84
2021/03/16 06:16:25;;;;;;;124.27;56.20;;;;;;;-1.80;70.17;96465.44;1826030;77;25722;-83
2021/03/16 06:18:52;;;;;;;118.17;57.48;;;;;;;-1.77;70.14;96462.98;1818018;77;26457;-83
2021/03/16 06:21:24;;;;;;;128.12;56.40;;;;;;;-1.71;70.22;96461.04;1841585;77;26242;-83
2021/03/16 06:23:58;;;;;;;153.12;60.83;;;;;;;-1.65;70.34;96461.71;1819574;77;27479;-84
2021/03/16 06:26:29;;;;;;;129.35;55.12;;;;;;;-1.51;70.40;96461.95;1818744;77;25695;-84
2021/03/16 06:29:10;;;;;;;104.90;48.08;;;;;;;-1.41;70.30;96464.45;1818179;77;25770;-84
2021/03/16 06:31:38;;;;;;;108.65;50.38;;;;;;;-1.37;70.20;96468.45;1818117;77;25909;-83
2021/03/16 06:34:05;;;;;;;110.50;51.60;;;;;;;-1.32;70.13;96474.08;1818174;77;25758;-83
2021/03/16 06:36:34;;;;;;;104.27;50.40;;;;;;;-1.34;70.06;96469.46;1818346;77;28568;-83
2021/03/16 06:39:03;;;;;;;98.37;50.60;;;;;;;-1.32;70.12;96471.43;1823767;77;26293;-83
2021/03/16 06:41:37;;;;;;;106.65;54.45;;;;;;;-1.34;70.15;96474.77;1818045;77;25834;-82
2021/03/16 06:44:05;;;;;;;98.92;50.88;;;;;;;-1.30;70.25;96473.42;1818175;77;25710;-82
2021/03/16 06:46:39;;;;;;;99.37;49.18;;;;;;;-1.27;70.43;96484.20;1840177;77;25728;-81
2021/03/16 06:49:16;;;;;;;87.82;44.85;;;;;;;-1.22;70.49;96485.39;1841327;77;27485;-81
2021/03/16 06:51:46;;;;;;;85.92;44.98;;;;;;;-1.14;70.58;96484.58;1813883;77;25742;-82
2021/03/16 06:54:18;;;;;;;91.08;45.55;;;;;;;-1.16;70.58;96480.76;1804649;78;25735;-81
2021/03/16 06:57:01;;;;;;;90.03;45.52;;;;;;;-1.03;70.68;96487.41;1801988;77;26277;-81
2021/03/16 06:59:32;;;;;;;87.12;44.98;;;;;;;-0.89;70.69;96493.41;1829846;77;25324;-81
2021/03/16 07:02:01;;;;;;;77.05;42.43;;;;;;;-0.76;70.59;96484.00;1809519;77;27489;-82
2021/03/16 07:04:29;;;;;;;84.75;42.60;;;;;;;-0.69;70.52;96489.46;1819924;77;25690;-82
2021/03/16 07:06:59;;;;;;;83.37;42.40;;;;;;;-0.60;70.48;96501.72;1820990;77;25687;-81
2021/03/16 07:09:27;;;;;;;79.65;41.00;;;;;;;-0.58;70.41;96498.91;1803421;77;26454;-82
2021/03/16 07:11:57;;;;;;;115.45;58.83;;;;;;;-0.54;70.64;96501.08;1800595;77;25719;-82
2021/03/16 07:14:24;;;;;;;139.22;65.30;;;;;;;-0.46;70.59;96497.09;1809483;77;28363;-81
2021/03/16 07:16:54;;;;;;;128.18;62.95;;;;;;;-0.33;70.70;96495.78;1804950;77;26085;-81
2021/03/16 07:19:23;;;;;;;135.35;67.45;;;;;;;-0.22;70.67;96494.11;1809475;77;25767;-82
2021/03/16 07:21:56;;;;;;;135.22;69.20;;;;;;;-0.09;70.72;96497.09;1802998;77;25783;-81
2021/03/16 07:24:30;;;;;;;142.90;69.92;;;;;;;0.07;70.65;96499.73;1801377;77;26329;-82
2021/03/16 07:26:59;;;;;;;147.30;70.32;;;;;;;0.22;70.49;96499.88;1825235;77;28193;-82
2021/03/16 07:29:27;;;;;;;128.05;66.55;;;;;;;0.36;70.49;96497.33;1809349;77;25802;-83
2021/03/16 07:31:55;;;;;;;133.80;66.07;;;;;;;0.59;70.42;96499.28;1804516;77;25965;-82
2021/03/16 07:34:24;;;;;;;124.85;63.13;;;;;;;0.79;70.25;96500.52;1807787;77;25841;-83
2021/03/16 07:36:53;;;;;;;127.65;64.40;;;;;;;0.92;70.03;96497.31;1806651;77;25312;-82
2021/03/16 07:39:24;;;;;;;125.15;64.92;;;;;;;0.95;69.76;96499.13;1798539;77;27719;-82
2021/03/16 07:41:52;;;;;;;119.37;63.55;;;;;;;1.08;69.83;96502.06;1787322;80;25822;-83
2021/03/16 07:44:21;;;;;;;134.87;66.35;;;;;;;1.26;69.69;96510.25;1786649;78;25815;-83
2021/03/16 07:46:59;;;;;;;132.25;65.45;;;;;;;1.23;69.40;96508.77;1787576;78;26657;-83
2021/03/16 07:49:41;;;;;;;138.77;67.35;;;;;;;1.28;69.56;96510.91;1787529;79;25689;-83
2021/03/16 07:52:23;;;;;;;141.23;71.30;;;;;;;1.33;69.62;96514.67;1788217;78;27500;-83
2021/03/16 07:54:52;;;;;;;138.28;64.70;;;;;;;1.42;69.50;96513.65;1787248;80;25710;-83
2021/03/16 07:57:31;;;;;;;123.60;63.23;;;;;;;1.47;69.49;96515.76;1787346;80;25908;-83
2021/03/16 08:00:06;;;;;;;134.80;66.62;;;;;;;1.38;69.40;96515.49;1787250;80;25679;-84
2021/03/16 08:02:37;;;;;;;138.90;69.40;;;;;;;1.39;69.60;96518.48;1787422;80;26117;-83
2021/03/16 08:05:18;;;;;;;122.62;63.78;;;;;;;1.49;69.71;96527.55;1787379;80;28271;-83
2021/03/16 08:07:46;;;;;;;125.85;66.40;;;;;;;1.61;69.65;96522.16;1787246;79;25660;-83
2021/03/16 08:10:14;;;;;;;115.85;60.75;;;;;;;1.73;69.44;96526.89;1787397;80;25647;-83
2021/03/16 08:12:41;;;;;;;107.03;59.80;;;;;;;1.83;69.30;96521.31;1782399;80;25741;-83
2021/03/16 08:15:14;;;;;;;105.55;59.27;;;;;;;1.90;69.11;96527.59;1787426;80;25772;-83
2021/03/16 08:17:42;;;;;;;114.67;56.15;;;;;;;1.95;69.09;96533.70;1787497;80;27563;-83
2021/03/16 08:20:14;;;;;;;112.50;58.68;;;;;;;1.98;69.07;96531.52;1787253;80;25901;-84
2021/03/16 08:22:41;;;;;;;110.95;59.75;;;;;;;2.03;68.94;96532.32;1786023;79;25797;-83
2021/03/16 08:25:10;;;;;;;121.62;63.40;;;;;;;2.10;68.89;96533.24;1787395;80;25666;-83
2021/03/16 08:27:39;;;;;;;131.32;65.45;;;;;;;2.11;68.69;96540.23;1787438;80;26197;-83
2021/03/16 08:30:09;;;;;;;133.00;68.72;;;;;;;2.12;68.67;96538.72;1787412;80;27486;-83
2021/03/16 08:32:38;;;;;;;127.02;65.97;;;;;;;2.12;68.61;96531.23;1787301;80;25719;-83
2021/03/16 08:35:07;;;;;;;118.35;61.58;;;;;;;2.19;68.73;96540.14;1787422;80;25686;-83
2021/03/16 08:37:36;;;;;;;124.20;60.83;;;;;;;2.30;68.78;96542.37;1787409;79;25998;-83
2021/03/16 08:40:07;;;;;;;119.57;61.83;;;;;;;2.35;68.71;96538.67;1787420;80;25718;-83
2021/03/16 08:42:35;;;;;;;117.10;59.53;;;;;;;2.35;68.68;96540.00;1787438;78;28446;-83
2021/03/16 08:45:03;;;;;;;103.17;54.42;;;;;;;2.38;68.52;96542.31;1787333;80;25656;-83
2021/03/16 08:47:30;;;;;;;114.03;56.25;;;;;;;2.33;68.36;96544.67;1787406;80;25751;-83
2021/03/16 08:49:58;;;;;;;112.83;57.03;;;;;;;2.29;68.51;96546.06;1787329;78;26356;-84
2021/03/16 08:52:29;;;;;;;109.90;58.05;;;;;;;2.35;68.63;96545.33;1787293;78;25786;-83
2021/03/16 08:55:00;;;;;;;115.15;61.48;;;;;;;2.39;68.63;96545.80;1787784;78;27666;-83
2021/03/16 08:57:31;;;;;;;110.12;59.48;;;;;;;2.45;68.66;96543.23;1787590;78;25739;-83
2021/03/16 09:00:01;;;;;;;124.85;60.48;;;;;;;2.52;68.53;96548.67;1787732;79;25688;-83
2021/03/16 09:02:34;;;;;;;125.62;66.47;;;;;;;2.57;68.47;96545.44;1787669;79;25725;-83
2021/03/16 09:05:01;;;;;;;116.40;62.78;;;;;;;2.58;68.53;96545.77;1787879;78;25900;-84
2021/03/16 09:07:32;;;;;;;110.85;59.73;;;;;;;2.60;68.59;96545.09;1787619;79;26616;-83
2021/03/16 09:10:15;;;;;;;108.37;55.95;;;;;;;2.66;68.75;96548.34;1787576;79;26231;-84
2021/03/16 09:12:44;;;;;;;97.47;51.50;;;;;;;2.76;68.76;96547.59;1787719;78;25790;-83
2021/03/16 09:15:25;;;;;;;88.45;48.30;;;;;;;2.86;68.73;96540.97;1787673;79;25817;-85
2021/03/16 09:17:55;;;;;;;93.65;47.73;;;;;;;2.95;68.79;96545.69;1787790;79;25803;-83
2021/03/16 09:20:28;;;;;;;88.07;48.17;;;;;;;3.03;68.72;96549.58;1787691;79;27490;-83
2021/03/16 09:23:02;;;;;;;88.78;45.05;;;;;;;3.10;68.65;96545.69;1787631;79;26542;-84
2021/03/16 09:25:37;;;;;;;84.40;46.53;;;;;;;3.16;68.60;96544.42;1787659;79;25770;-84
2021/03/16 09:28:09;;;;;;;80.57;46.42;;;;;;;3.24;68.51;96550.17;1787331;79;26461;-82
2021/03/16 09:30:45;;;;;;;99.03;47.00;;;;;;;3.28;68.54;96543.94;1787829;79;25849;-82
2021/03/16 09:33:18;;;;;;;91.82;49.77;;;;;;;3.37;68.43;96548.18;1787770;79;27435;-82
2021/03/16 09:35:45;;;;;;;94.83;50.85;;;;;;;3.42;68.47;96548.42;1787592;80;25758;-82
2021/03/16 09:38:12;;;;;;;101.05;50.90;;;;;;;3.45;68.43;96557.40;1787637;79;25714;-82
2021/03/16 09:40:43;;;;;;;105.45;55.78;;;;;;;3.49;68.55;96558.18;1787615;78;25514;-83
2021/03/16 09:43:25;;;;;;;95.77;53.08;;;;;;;3.51;68.65;96556.63;1787784;79;25777;-83
2021/03/16 09:46:03;;;;;;;97.75;54.45;;;;;;;3.60;68.58;96567.53;1787793;80;27492;-83
2021/03/16 09:48:31;;;;;;;94.85;53.05;;;;;;;3.70;68.49;96568.05;1787538;80;26211;-83
2021/03/16 09:51:02;;;;;;;93.80;49.93;;;;;;;3.76;68.29;96567.28;1787747;80;25746;-82
2021/03/16 09:53:30;;;;;;;87.88;47.10;;;;;;;3.82;68.17;96566.54;1787451;78;26400;-83
2021/03/16 09:56:01;;;;;;;94.52;49.70;;;;;;;3.83;68.22;96570.87;1787480;78;25983;-83
2021/03/16 09:58:29;;;;;;;98.37;54.85;;;;;;;3.70;68.09;96571.23;1787415;80;28435;-83
2021/03/16 10:00:59;;;;;;;99.95;55.90;;;;;;;3.61;68.33;96569.19;1787292;79;25697;-82
2021/03/16 10:03:27;;;;;;;102.25;55.20;;;;;;;3.58;68.32;96564.22;1787301;79;25738;-83
2021/03/16 10:06:08;;;;;;;105.30;57.53;;;;;;;3.53;68.50;96561.28;1787315;80;25728;-83
2021/03/16 10:08:37;;;;;;;99.63;54.87;;;;;;;3.59;68.89;96559.20;1787518;80;25731;-83
2021/03/16 10:11:04;;;;;;;102.50;54.95;;;;;;;3.70;68.95;96563.22;1787430;80;27527;-83
2021/03/16 10:13:40;;;;;;;91.97;48.48;;;;;;;3.79;69.12;96557.57;1787207;80;26136;-83
2021/03/16 10:16:13;;;;;;;89.85;49.67;;;;;;;3.91;68.89;96557.39;1787218;80;25754;-83
2021/03/16 10:18:47;;;;;;;72.37;39.55;;;;;;;3.99;69.08;96561.25;1787234;79;25713;-83
2021/03/16 10:21:14;;;;;;;104.05;56.85;;;;;;;4.16;68.74;96559.16;1787322;79;25619;-82
2021/03/16 10:23:41;;;;;;;119.17;62.23;;;;;;;4.14;68.59;96560.37;1787368;80;27484;-83
2021/03/16 10:26:12;;;;;;;88.78;47.17;;;;;;;4.11;68.39;96561.57;1787315;80;25782;-82
2021/03/16 10:28:42;;;;;;;87.22;46.05;;;;;;;4.02;68.50;96561.39;1787212;80;25713;-83
2021/03/16 10:31:22;;;;;;;80.47;44.65;;;;;;;4.08;68.66;96564.64;1787377;78;25781;-83
2021/03/16 10:33:54;;;;;;;78.83;43.33;;;;;;;4.20;68.45;96560.95;1787369;80;25702;-84
2021/03/16 10:36:23;;;;;;;86.82;41.37;;;;;;;4.30;68.26;96564.12;1787404;80;27474;-84
2021/03/16 10:38:52;;;;;;;71.33;40.28;;;;;;;4.29;68.03;96559.80;1787305;78;25726;-82
2021/03/16 10:41:21;;;;;;;74.77;41.25;;;;;;;4.09;67.85;96557.46;1787366;79;25702;-82
2021/03/16 10:43:49;;;;;;;73.50;40.92;;;;;;;3.94;68.06;96556.19;1787297;78;25526;-83
2021/03/16 10:46:16;;;;;;;71.28;39.42;;;;;;;3.86;68.18;96563.83;1787476;80;25742;-83
2021/03/16 10:48:44;;;;;;;61.13;33.92;;;;;;;3.83;68.21;96564.70;1787259;80;28445;-83
2021/03/16 10:51:11;;;;;;;62.85;34.98;;;;;;;3.87;68.54;96568.63;1787234;79;26082;-83
2021/03/16 10:53:39;;;;;;;54.67;30.50;;;;;;;3.91;68.42;96565.39;1787358;80;25817;-83
2021/03/16 10:56:07;;;;;;;65.60;35.35;;;;;;;3.90;68.33;96567.74;1787268;78;25814;-83
2021/03/16 10:58:35;;;;;;;65.42;35.38;;;;;;;3.94;68.46;96566.36;1787304;80;26141;-83
2021/03/16 11:01:03;;;;;;;59.20;34.67;;;;;;;4.09;68.71;96572.98;1787273;80;27485;-83
2021/03/16 11:03:33;;;;;;;63.20;37.20;;;;;;;4.21;68.52;96567.95;1787226;79;25723;-82
2021/03/16 11:06:01;;;;;;;68.10;35.98;;;;;;;4.32;68.30;96561.58;1787268;79;25683;-83
2021/03/16 11:08:28;;;;;;;65.22;38.10;;;;;;;4.45;68.07;96560.86;1787400;80;26445;-83
2021/03/16 11:10:56;;;;;;;60.60;35.60;;;;;;;4.75;68.25;96564.66;1787359;78;25843;-83
2021/03/16 11:13:23;;;;;;;58.63;35.90;;;;;;;4.98;68.05;96559.36;1787278;80;27485;-83
2021/03/16 11:15:51;;;;;;;64.47;34.63;;;;;;;5.05;67.45;96564.77;1787119;78;25742;-83
2021/03/16 11:18:18;;;;;;;66.60;36.03;;;;;;;5.20;67.37;96562.77;1787401;80;25698;-83
2021/03/16 11:20:46;;;;;;;58.78;32.55;;;;;;;5.30;67.11;96560.58;1787304;79;25956;-82
2021/03/16 11:23:14;;;;;;;56.45;29.67;;;;;;;5.36;67.04;96554.92;1787336;80;25873;-83
2021/03/16 11:25:41;;;;;;;55.63;29.40;;;;;;;5.75;67.26;96554.25;1787283;79;28436;-83